sensor_id;sensor_type;location;lat;lon;timestamp;P1;durP1;ratioP1;P2;durP2;ratioP2
67074;SDS011;53990;50.334;18.640;2022-08-06T00:01:54;18.10;;;15.30;;
67074;SDS011;53990;50.334;18.640;2022-08-06T00:04:22;18.10;;;14.50;;
67074;SDS011;53990;50.334;18.640;2022-08-06T00:06:49;16.90;;;14.50;;
67074;SDS011;53990;50.334;18.640;2022-08-06T00:09:17;20.30;;;15.10;;
67074;SDS011;53990;50.334;18.640;2022-08-06T00:11:44;19.20;;;14.70;;
67074;SDS011;53990;50.334;18.640;2022-08-06T00:14:11;17.70;;;15.10;;
67074;SDS011;53990;50.334;18.640;2022-08-06T00:16:39;19.70;;;15.90;;
67074;SDS011;53990;50.334;18.640;2022-08-06T00:19:06;21.10;;;16.10;;
67074;SDS011;53990;50.334;18.640;2022-08-06T00:21:33;19.00;;;15.20;;
67074;SDS011;53990;50.334;18.640;2022-08-06T00:24:00;18.20;;;14.90;;
67074;SDS011;53990;50.334;18.640;2022-08-06T00:26:28;19.00;;;15.20;;
67074;SDS011;53990;50.334;18.640;2022-08-06T00:28:56;21.60;;;15.30;;
67074;SDS011;53990;50.334;18.640;2022-08-06T00:31:23;18.60;;;15.40;;
67074;SDS011;53990;50.334;18.640;2022-08-06T00:33:50;19.80;;;16.50;;
67074;SDS011;53990;50.334;18.640;2022-08-06T00:36:17;20.50;;;16.90;;
67074;SDS011;53990;50.334;18.640;2022-08-06T00:38:44;23.40;;;17.20;;
67074;SDS011;53990;50.334;18.640;2022-08-06T00:41:12;24.30;;;17.00;;
67074;SDS011;53990;50.334;18.640;2022-08-06T00:43:41;24.10;;;17.40;;
67074;SDS011;53990;50.334;18.640;2022-08-06T00:46:09;18.20;;;15.80;;
67074;SDS011;53990;50.334;18.640;2022-08-06T00:48:36;22.00;;;16.00;;
67074;SDS011;53990;50.334;18.640;2022-08-06T00:51:04;19.20;;;15.50;;
67074;SDS011;53990;50.334;18.640;2022-08-06T00:53:31;17.60;;;14.70;;
67074;SDS011;53990;50.334;18.640;2022-08-06T00:55:58;16.70;;;14.60;;
67074;SDS011;53990;50.334;18.640;2022-08-06T00:58:28;20.40;;;15.70;;
67074;SDS011;53990;50.334;18.640;2022-08-06T01:00:55;17.80;;;13.70;;
67074;SDS011;53990;50.334;18.640;2022-08-06T01:03:22;16.10;;;13.40;;
67074;SDS011;53990;50.334;18.640;2022-08-06T01:05:50;16.40;;;13.40;;
67074;SDS011;53990;50.334;18.640;2022-08-06T01:08:17;18.90;;;13.50;;
67074;SDS011;53990;50.334;18.640;2022-08-06T01:10:45;16.30;;;13.00;;
67074;SDS011;53990;50.334;18.640;2022-08-06T01:13:13;16.00;;;12.90;;
67074;SDS011;53990;50.334;18.640;2022-08-06T01:15:42;18.00;;;12.40;;
67074;SDS011;53990;50.334;18.640;2022-08-06T01:18:19;13.20;;;11.60;;
67074;SDS011;53990;50.334;18.640;2022-08-06T01:21:10;15.70;;;11.30;;
67074;SDS011;53990;50.334;18.640;2022-08-06T01:23:51;13.10;;;11.70;;
67074;SDS011;53990;50.334;18.640;2022-08-06T01:26:35;13.20;;;10.80;;
67074;SDS011;53990;50.334;18.640;2022-08-06T01:29:08;11.60;;;10.40;;
67074;SDS011;53990;50.334;18.640;2022-08-06T01:31:43;17.40;;;9.90;;
67074;SDS011;53990;50.334;18.640;2022-08-06T01:34:34;13.70;;;10.90;;
67074;SDS011;53990;50.334;18.640;2022-08-06T01:37:13;12.90;;;9.50;;
67074;SDS011;53990;50.334;18.640;2022-08-06T01:39:44;10.80;;;9.70;;
67074;SDS011;53990;50.334;18.640;2022-08-06T01:42:14;12.90;;;10.20;;
67074;SDS011;53990;50.334;18.640;2022-08-06T01:44:43;11.70;;;9.50;;
67074;SDS011;53990;50.334;18.640;2022-08-06T01:47:15;10.90;;;9.30;;
67074;SDS011;53990;50.334;18.640;2022-08-06T01:49:51;10.80;;;9.30;;
67074;SDS011;53990;50.334;18.640;2022-08-06T01:52:19;11.50;;;8.80;;
67074;SDS011;53990;50.334;18.640;2022-08-06T01:54:50;9.80;;;8.70;;
67074;SDS011;53990;50.334;18.640;2022-08-06T01:57:19;9.90;;;8.90;;
67074;SDS011;53990;50.334;18.640;2022-08-06T01:59:50;11.10;;;8.10;;
67074;SDS011;53990;50.334;18.640;2022-08-06T02:02:21;11.30;;;8.40;;
67074;SDS011;53990;50.334;18.640;2022-08-06T02:04:51;11.00;;;8.10;;
67074;SDS011;53990;50.334;18.640;2022-08-06T02:07:22;11.30;;;8.00;;
67074;SDS011;53990;50.334;18.640;2022-08-06T02:09:55;9.40;;;7.70;;
67074;SDS011;53990;50.334;18.640;2022-08-06T02:12:25;8.60;;;7.60;;
67074;SDS011;53990;50.334;18.640;2022-08-06T02:14:59;8.30;;;7.30;;
67074;SDS011;53990;50.334;18.640;2022-08-06T02:20:02;9.10;;;6.60;;
67074;SDS011;53990;50.334;18.640;2022-08-06T02:22:32;7.80;;;7.00;;
67074;SDS011;53990;50.334;18.640;2022-08-06T02:25:03;8.60;;;7.00;;
67074;SDS011;53990;50.334;18.640;2022-08-06T02:27:32;8.50;;;7.10;;
67074;SDS011;53990;50.334;18.640;2022-08-06T02:30:00;8.80;;;7.00;;
67074;SDS011;53990;50.334;18.640;2022-08-06T02:32:28;7.50;;;6.20;;
67074;SDS011;53990;50.334;18.640;2022-08-06T02:34:55;8.80;;;6.90;;
67074;SDS011;53990;50.334;18.640;2022-08-06T02:37:26;9.50;;;6.60;;
67074;SDS011;53990;50.334;18.640;2022-08-06T02:42:57;8.00;;;6.30;;
67074;SDS011;53990;50.334;18.640;2022-08-06T02:48:06;8.70;;;6.60;;
67074;SDS011;53990;50.334;18.640;2022-08-06T02:50:38;9.20;;;6.90;;
67074;SDS011;53990;50.334;18.640;2022-08-06T02:53:09;11.20;;;6.80;;
67074;SDS011;53990;50.334;18.640;2022-08-06T02:55:39;9.90;;;6.90;;
67074;SDS011;53990;50.334;18.640;2022-08-06T02:58:19;9.30;;;6.90;;
67074;SDS011;53990;50.334;18.640;2022-08-06T03:00:50;8.90;;;6.70;;
67074;SDS011;53990;50.334;18.640;2022-08-06T03:03:22;10.50;;;6.80;;
67074;SDS011;53990;50.334;18.640;2022-08-06T03:05:51;8.30;;;6.70;;
67074;SDS011;53990;50.334;18.640;2022-08-06T03:08:22;7.60;;;6.80;;
67074;SDS011;53990;50.334;18.640;2022-08-06T03:10:50;8.00;;;6.20;;
67074;SDS011;53990;50.334;18.640;2022-08-06T03:13:21;8.10;;;6.90;;
67074;SDS011;53990;50.334;18.640;2022-08-06T03:15:49;7.50;;;6.60;;
67074;SDS011;53990;50.334;18.640;2022-08-06T03:18:17;7.90;;;6.40;;
67074;SDS011;53990;50.334;18.640;2022-08-06T03:20:45;7.30;;;6.40;;
67074;SDS011;53990;50.334;18.640;2022-08-06T03:23:13;7.80;;;6.60;;
67074;SDS011;53990;50.334;18.640;2022-08-06T03:25:42;8.80;;;7.10;;
67074;SDS011;53990;50.334;18.640;2022-08-06T03:28:11;9.30;;;7.00;;
67074;SDS011;53990;50.334;18.640;2022-08-06T03:30:40;10.90;;;7.00;;
67074;SDS011;53990;50.334;18.640;2022-08-06T03:33:12;9.80;;;7.00;;
67074;SDS011;53990;50.334;18.640;2022-08-06T03:35:40;8.10;;;6.90;;
67074;SDS011;53990;50.334;18.640;2022-08-06T03:38:09;7.80;;;6.30;;
67074;SDS011;53990;50.334;18.640;2022-08-06T03:40:38;7.80;;;6.60;;
67074;SDS011;53990;50.334;18.640;2022-08-06T03:43:06;8.20;;;6.90;;
67074;SDS011;53990;50.334;18.640;2022-08-06T03:45:36;10.60;;;6.60;;
67074;SDS011;53990;50.334;18.640;2022-08-06T03:48:05;9.50;;;7.50;;
67074;SDS011;53990;50.334;18.640;2022-08-06T03:50:37;7.90;;;7.00;;
67074;SDS011;53990;50.334;18.640;2022-08-06T03:53:10;10.40;;;7.30;;
67074;SDS011;53990;50.334;18.640;2022-08-06T03:55:40;9.60;;;7.60;;
67074;SDS011;53990;50.334;18.640;2022-08-06T03:58:11;9.10;;;7.80;;
67074;SDS011;53990;50.334;18.640;2022-08-06T04:01:05;8.70;;;7.80;;
67074;SDS011;53990;50.334;18.640;2022-08-06T04:03:32;15.10;;;7.50;;
67074;SDS011;53990;50.334;18.640;2022-08-06T04:06:02;8.70;;;7.80;;
67074;SDS011;53990;50.334;18.640;2022-08-06T04:08:29;9.20;;;7.60;;
67074;SDS011;53990;50.334;18.640;2022-08-06T04:10:58;8.70;;;7.80;;
67074;SDS011;53990;50.334;18.640;2022-08-06T04:13:26;9.60;;;8.20;;
67074;SDS011;53990;50.334;18.640;2022-08-06T04:15:55;10.10;;;8.00;;
67074;SDS011;53990;50.334;18.640;2022-08-06T04:18:28;10.40;;;7.90;;
67074;SDS011;53990;50.334;18.640;2022-08-06T04:21:00;10.60;;;7.40;;
67074;SDS011;53990;50.334;18.640;2022-08-06T04:23:29;12.00;;;8.10;;
67074;SDS011;53990;50.334;18.640;2022-08-06T04:26:01;8.70;;;7.20;;
67074;SDS011;53990;50.334;18.640;2022-08-06T04:28:30;11.20;;;7.50;;
67074;SDS011;53990;50.334;18.640;2022-08-06T04:30:58;7.80;;;6.90;;
67074;SDS011;53990;50.334;18.640;2022-08-06T04:33:27;7.80;;;7.00;;
67074;SDS011;53990;50.334;18.640;2022-08-06T04:35:54;9.30;;;7.80;;
67074;SDS011;53990;50.334;18.640;2022-08-06T04:38:23;9.00;;;7.10;;
67074;SDS011;53990;50.334;18.640;2022-08-06T04:40:51;7.90;;;7.10;;
67074;SDS011;53990;50.334;18.640;2022-08-06T04:43:18;12.30;;;6.80;;
67074;SDS011;53990;50.334;18.640;2022-08-06T04:45:45;10.60;;;7.00;;
67074;SDS011;53990;50.334;18.640;2022-08-06T04:48:13;9.80;;;7.20;;
67074;SDS011;53990;50.334;18.640;2022-08-06T04:50:40;9.30;;;6.70;;
67074;SDS011;53990;50.334;18.640;2022-08-06T04:53:13;8.20;;;6.20;;
67074;SDS011;53990;50.334;18.640;2022-08-06T04:55:43;9.50;;;7.00;;
67074;SDS011;53990;50.334;18.640;2022-08-06T04:58:11;7.50;;;6.70;;
67074;SDS011;53990;50.334;18.640;2022-08-06T05:00:42;9.10;;;7.30;;
67074;SDS011;53990;50.334;18.640;2022-08-06T05:03:10;9.10;;;7.70;;
67074;SDS011;53990;50.334;18.640;2022-08-06T05:05:42;8.60;;;7.50;;
67074;SDS011;53990;50.334;18.640;2022-08-06T05:08:10;9.60;;;7.60;;
67074;SDS011;53990;50.334;18.640;2022-08-06T05:10:47;11.90;;;7.90;;
67074;SDS011;53990;50.334;18.640;2022-08-06T05:13:19;8.90;;;7.80;;
67074;SDS011;53990;50.334;18.640;2022-08-06T05:15:53;10.00;;;7.60;;
67074;SDS011;53990;50.334;18.640;2022-08-06T05:18:28;9.60;;;7.00;;
67074;SDS011;53990;50.334;18.640;2022-08-06T05:20:57;8.60;;;7.20;;
67074;SDS011;53990;50.334;18.640;2022-08-06T05:23:34;9.90;;;7.10;;
67074;SDS011;53990;50.334;18.640;2022-08-06T05:26:02;8.90;;;6.90;;
67074;SDS011;53990;50.334;18.640;2022-08-06T05:28:30;9.60;;;7.70;;
67074;SDS011;53990;50.334;18.640;2022-08-06T05:30:58;7.60;;;6.80;;
67074;SDS011;53990;50.334;18.640;2022-08-06T05:33:29;8.10;;;6.20;;
67074;SDS011;53990;50.334;18.640;2022-08-06T05:36:00;12.00;;;7.80;;
67074;SDS011;53990;50.334;18.640;2022-08-06T05:38:27;7.60;;;6.80;;
67074;SDS011;53990;50.334;18.640;2022-08-06T05:40:55;8.40;;;6.40;;
67074;SDS011;53990;50.334;18.640;2022-08-06T05:43:22;8.00;;;6.40;;
67074;SDS011;53990;50.334;18.640;2022-08-06T05:45:53;13.30;;;6.20;;
67074;SDS011;53990;50.334;18.640;2022-08-06T05:48:21;6.60;;;5.90;;
67074;SDS011;53990;50.334;18.640;2022-08-06T05:50:54;8.50;;;6.30;;
67074;SDS011;53990;50.334;18.640;2022-08-06T05:53:28;8.90;;;6.30;;
67074;SDS011;53990;50.334;18.640;2022-08-06T05:56:04;12.00;;;6.40;;
67074;SDS011;53990;50.334;18.640;2022-08-06T05:58:41;10.00;;;6.30;;
67074;SDS011;53990;50.334;18.640;2022-08-06T06:01:11;6.80;;;6.10;;
67074;SDS011;53990;50.334;18.640;2022-08-06T06:03:40;7.60;;;6.00;;
67074;SDS011;53990;50.334;18.640;2022-08-06T06:06:08;8.20;;;6.30;;
67074;SDS011;53990;50.334;18.640;2022-08-06T06:08:36;12.90;;;9.30;;
67074;SDS011;53990;50.334;18.640;2022-08-06T06:11:05;11.40;;;9.70;;
67074;SDS011;53990;50.334;18.640;2022-08-06T06:13:35;7.70;;;6.60;;
67074;SDS011;53990;50.334;18.640;2022-08-06T06:22:30;15.20;;;8.60;;
67074;SDS011;53990;50.334;18.640;2022-08-06T06:25:11;13.20;;;8.10;;
67074;SDS011;53990;50.334;18.640;2022-08-06T06:27:56;12.90;;;8.60;;
67074;SDS011;53990;50.334;18.640;2022-08-06T06:36:46;10.80;;;8.30;;
67074;SDS011;53990;50.334;18.640;2022-08-06T06:39:41;10.20;;;8.00;;
67074;SDS011;53990;50.334;18.640;2022-08-06T06:42:29;10.00;;;6.90;;
67074;SDS011;53990;50.334;18.640;2022-08-06T06:47:59;11.20;;;4.90;;
67074;SDS011;53990;50.334;18.640;2022-08-06T06:50:32;4.40;;;2.20;;
67074;SDS011;53990;50.334;18.640;2022-08-06T06:53:00;3.30;;;1.90;;
67074;SDS011;53990;50.334;18.640;2022-08-06T07:00:34;5.90;;;2.10;;
67074;SDS011;53990;50.334;18.640;2022-08-06T07:03:03;5.20;;;2.00;;
67074;SDS011;53990;50.334;18.640;2022-08-06T07:05:54;4.10;;;1.60;;
67074;SDS011;53990;50.334;18.640;2022-08-06T07:08:22;8.80;;;3.70;;
67074;SDS011;53990;50.334;18.640;2022-08-06T07:10:51;4.70;;;2.00;;
67074;SDS011;53990;50.334;18.640;2022-08-06T07:13:19;8.90;;;3.20;;
67074;SDS011;53990;50.334;18.640;2022-08-06T07:15:48;5.40;;;2.70;;
67074;SDS011;53990;50.334;18.640;2022-08-06T07:18:17;4.00;;;1.90;;
67074;SDS011;53990;50.334;18.640;2022-08-06T07:20:45;5.40;;;3.50;;
67074;SDS011;53990;50.334;18.640;2022-08-06T07:23:14;29.80;;;18.50;;
67074;SDS011;53990;50.334;18.640;2022-08-06T07:25:45;4.90;;;2.10;;
67074;SDS011;53990;50.334;18.640;2022-08-06T07:28:14;4.70;;;2.20;;
67074;SDS011;53990;50.334;18.640;2022-08-06T07:30:43;26.70;;;4.30;;
67074;SDS011;53990;50.334;18.640;2022-08-06T07:33:11;3.40;;;2.10;;
67074;SDS011;53990;50.334;18.640;2022-08-06T07:35:41;3.30;;;2.10;;
67074;SDS011;53990;50.334;18.640;2022-08-06T07:38:09;3.70;;;2.30;;
67074;SDS011;53990;50.334;18.640;2022-08-06T07:40:43;3.50;;;2.30;;
67074;SDS011;53990;50.334;18.640;2022-08-06T07:43:13;4.20;;;2.70;;
67074;SDS011;53990;50.334;18.640;2022-08-06T07:45:42;3.50;;;2.20;;
67074;SDS011;53990;50.334;18.640;2022-08-06T07:48:11;3.60;;;2.00;;
67074;SDS011;53990;50.334;18.640;2022-08-06T07:50:43;4.90;;;2.70;;
67074;SDS011;53990;50.334;18.640;2022-08-06T07:53:13;4.30;;;2.90;;
67074;SDS011;53990;50.334;18.640;2022-08-06T07:55:41;8.50;;;3.20;;
67074;SDS011;53990;50.334;18.640;2022-08-06T07:58:10;3.60;;;2.30;;
67074;SDS011;53990;50.334;18.640;2022-08-06T08:00:38;31.00;;;21.10;;
67074;SDS011;53990;50.334;18.640;2022-08-06T08:03:07;24.00;;;17.10;;
67074;SDS011;53990;50.334;18.640;2022-08-06T08:05:55;5.30;;;3.40;;
67074;SDS011;53990;50.334;18.640;2022-08-06T08:08:42;3.60;;;2.50;;
67074;SDS011;53990;50.334;18.640;2022-08-06T08:11:09;3.30;;;2.20;;
67074;SDS011;53990;50.334;18.640;2022-08-06T08:13:37;4.60;;;3.20;;
67074;SDS011;53990;50.334;18.640;2022-08-06T08:16:07;5.10;;;3.00;;
67074;SDS011;53990;50.334;18.640;2022-08-06T08:18:35;5.30;;;3.30;;
67074;SDS011;53990;50.334;18.640;2022-08-06T08:21:02;4.00;;;2.70;;
67074;SDS011;53990;50.334;18.640;2022-08-06T08:23:30;3.30;;;2.60;;
67074;SDS011;53990;50.334;18.640;2022-08-06T08:25:59;3.40;;;2.20;;
67074;SDS011;53990;50.334;18.640;2022-08-06T08:28:30;4.40;;;2.50;;
67074;SDS011;53990;50.334;18.640;2022-08-06T08:30:59;3.80;;;2.50;;
67074;SDS011;53990;50.334;18.640;2022-08-06T08:33:28;4.10;;;3.00;;
67074;SDS011;53990;50.334;18.640;2022-08-06T08:35:56;2.90;;;2.10;;
67074;SDS011;53990;50.334;18.640;2022-08-06T08:38:23;5.00;;;2.40;;
67074;SDS011;53990;50.334;18.640;2022-08-06T08:40:53;9.80;;;2.10;;
67074;SDS011;53990;50.334;18.640;2022-08-06T08:43:37;5.70;;;1.70;;
67074;SDS011;53990;50.334;18.640;2022-08-06T08:46:07;7.80;;;1.90;;
67074;SDS011;53990;50.334;18.640;2022-08-06T08:48:35;2.60;;;1.50;;
67074;SDS011;53990;50.334;18.640;2022-08-06T08:51:04;2.60;;;1.50;;
67074;SDS011;53990;50.334;18.640;2022-08-06T08:53:45;2.20;;;1.40;;
67074;SDS011;53990;50.334;18.640;2022-08-06T08:56:15;2.90;;;1.40;;
67074;SDS011;53990;50.334;18.640;2022-08-06T08:58:43;2.80;;;2.00;;
67074;SDS011;53990;50.334;18.640;2022-08-06T09:01:11;5.10;;;2.30;;
67074;SDS011;53990;50.334;18.640;2022-08-06T09:03:39;6.10;;;1.90;;
67074;SDS011;53990;50.334;18.640;2022-08-06T09:06:10;2.90;;;1.50;;
67074;SDS011;53990;50.334;18.640;2022-08-06T09:08:38;2.70;;;1.70;;
67074;SDS011;53990;50.334;18.640;2022-08-06T09:11:06;3.00;;;1.90;;
67074;SDS011;53990;50.334;18.640;2022-08-06T09:13:34;3.20;;;2.00;;
67074;SDS011;53990;50.334;18.640;2022-08-06T09:16:01;3.10;;;2.30;;
67074;SDS011;53990;50.334;18.640;2022-08-06T09:18:28;3.50;;;2.60;;
67074;SDS011;53990;50.334;18.640;2022-08-06T09:20:58;5.50;;;2.80;;
67074;SDS011;53990;50.334;18.640;2022-08-06T09:23:26;4.00;;;2.60;;
67074;SDS011;53990;50.334;18.640;2022-08-06T09:25:54;5.40;;;2.90;;
67074;SDS011;53990;50.334;18.640;2022-08-06T09:31:17;3.70;;;2.70;;
67074;SDS011;53990;50.334;18.640;2022-08-06T09:33:57;3.80;;;2.80;;
67074;SDS011;53990;50.334;18.640;2022-08-06T09:36:27;3.30;;;2.30;;
67074;SDS011;53990;50.334;18.640;2022-08-06T09:38:57;3.50;;;2.40;;
67074;SDS011;53990;50.334;18.640;2022-08-06T09:41:28;3.30;;;2.70;;
67074;SDS011;53990;50.334;18.640;2022-08-06T09:43:57;4.00;;;2.80;;
67074;SDS011;53990;50.334;18.640;2022-08-06T09:46:41;3.70;;;2.90;;
67074;SDS011;53990;50.334;18.640;2022-08-06T09:49:10;5.50;;;3.20;;
67074;SDS011;53990;50.334;18.640;2022-08-06T09:51:37;6.00;;;3.00;;
67074;SDS011;53990;50.334;18.640;2022-08-06T09:54:07;4.20;;;2.70;;
67074;SDS011;53990;50.334;18.640;2022-08-06T09:56:36;4.40;;;2.50;;
67074;SDS011;53990;50.334;18.640;2022-08-06T09:59:08;4.90;;;2.50;;
67074;SDS011;53990;50.334;18.640;2022-08-06T10:01:39;4.80;;;2.70;;
67074;SDS011;53990;50.334;18.640;2022-08-06T10:04:27;4.10;;;2.40;;
67074;SDS011;53990;50.334;18.640;2022-08-06T10:07:00;3.40;;;2.70;;
67074;SDS011;53990;50.334;18.640;2022-08-06T10:09:28;4.80;;;2.60;;
67074;SDS011;53990;50.334;18.640;2022-08-06T10:11:55;5.10;;;3.20;;
67074;SDS011;53990;50.334;18.640;2022-08-06T10:14:31;6.00;;;3.20;;
67074;SDS011;53990;50.334;18.640;2022-08-06T10:17:10;6.10;;;3.40;;
67074;SDS011;53990;50.334;18.640;2022-08-06T10:19:40;4.70;;;3.10;;
67074;SDS011;53990;50.334;18.640;2022-08-06T10:22:12;6.50;;;3.80;;
67074;SDS011;53990;50.334;18.640;2022-08-06T10:24:41;4.90;;;3.40;;
67074;SDS011;53990;50.334;18.640;2022-08-06T10:27:35;4.20;;;3.20;;
67074;SDS011;53990;50.334;18.640;2022-08-06T10:30:07;8.30;;;3.60;;
67074;SDS011;53990;50.334;18.640;2022-08-06T10:32:52;4.90;;;3.50;;
67074;SDS011;53990;50.334;18.640;2022-08-06T10:35:22;5.40;;;3.30;;
67074;SDS011;53990;50.334;18.640;2022-08-06T10:37:55;5.10;;;3.10;;
67074;SDS011;53990;50.334;18.640;2022-08-06T10:40:24;4.40;;;3.10;;
67074;SDS011;53990;50.334;18.640;2022-08-06T10:42:53;4.70;;;3.50;;
67074;SDS011;53990;50.334;18.640;2022-08-06T10:45:20;4.80;;;3.90;;
67074;SDS011;53990;50.334;18.640;2022-08-06T10:47:52;6.00;;;4.30;;
67074;SDS011;53990;50.334;18.640;2022-08-06T10:50:19;5.80;;;4.90;;
67074;SDS011;53990;50.334;18.640;2022-08-06T10:52:47;8.20;;;5.90;;
67074;SDS011;53990;50.334;18.640;2022-08-06T10:55:15;6.90;;;5.70;;
67074;SDS011;53990;50.334;18.640;2022-08-06T10:57:44;10.40;;;7.20;;
67074;SDS011;53990;50.334;18.640;2022-08-06T11:00:12;10.40;;;7.10;;
67074;SDS011;53990;50.334;18.640;2022-08-06T11:05:41;9.30;;;7.20;;
67074;SDS011;53990;50.334;18.640;2022-08-06T11:15:54;11.40;;;8.50;;
67074;SDS011;53990;50.334;18.640;2022-08-06T11:18:21;14.70;;;8.70;;
67074;SDS011;53990;50.334;18.640;2022-08-06T11:20:51;10.60;;;8.60;;
67074;SDS011;53990;50.334;18.640;2022-08-06T11:25:48;12.60;;;10.20;;
67074;SDS011;53990;50.334;18.640;2022-08-06T11:28:19;13.70;;;9.70;;
67074;SDS011;53990;50.334;18.640;2022-08-06T11:30:51;10.60;;;9.50;;
67074;SDS011;53990;50.334;18.640;2022-08-06T11:41:30;11.80;;;10.30;;
67074;SDS011;53990;50.334;18.640;2022-08-06T11:46:40;12.50;;;10.00;;
67074;SDS011;53990;50.334;18.640;2022-08-06T11:49:12;15.10;;;10.40;;
67074;SDS011;53990;50.334;18.640;2022-08-06T11:51:57;11.40;;;10.10;;
67074;SDS011;53990;50.334;18.640;2022-08-06T11:59:46;12.10;;;10.00;;
67074;SDS011;53990;50.334;18.640;2022-08-06T12:02:47;11.50;;;9.00;;
67074;SDS011;53990;50.334;18.640;2022-08-06T12:08:15;11.80;;;9.50;;
67074;SDS011;53990;50.334;18.640;2022-08-06T12:11:24;11.20;;;9.70;;
67074;SDS011;53990;50.334;18.640;2022-08-06T12:13:54;11.90;;;10.60;;
67074;SDS011;53990;50.334;18.640;2022-08-06T12:18:57;12.70;;;10.20;;
67074;SDS011;53990;50.334;18.640;2022-08-06T12:21:24;11.40;;;9.90;;
67074;SDS011;53990;50.334;18.640;2022-08-06T12:23:52;11.70;;;9.60;;
67074;SDS011;53990;50.334;18.640;2022-08-06T12:26:20;11.80;;;8.90;;
67074;SDS011;53990;50.334;18.640;2022-08-06T12:28:48;9.90;;;8.80;;
67074;SDS011;53990;50.334;18.640;2022-08-06T12:31:30;10.80;;;9.50;;
67074;SDS011;53990;50.334;18.640;2022-08-06T12:33:58;12.60;;;9.20;;
67074;SDS011;53990;50.334;18.640;2022-08-06T12:36:30;11.90;;;8.80;;
67074;SDS011;53990;50.334;18.640;2022-08-06T12:38:58;11.70;;;9.30;;
67074;SDS011;53990;50.334;18.640;2022-08-06T12:41:37;10.50;;;9.00;;
67074;SDS011;53990;50.334;18.640;2022-08-06T12:44:04;11.00;;;8.60;;
67074;SDS011;53990;50.334;18.640;2022-08-06T12:46:32;10.20;;;8.30;;
67074;SDS011;53990;50.334;18.640;2022-08-06T12:48:59;9.30;;;8.40;;
67074;SDS011;53990;50.334;18.640;2022-08-06T12:51:27;10.20;;;7.90;;
67074;SDS011;53990;50.334;18.640;2022-08-06T12:54:04;8.80;;;7.90;;
67074;SDS011;53990;50.334;18.640;2022-08-06T12:56:33;12.70;;;11.40;;
67074;SDS011;53990;50.334;18.640;2022-08-06T12:59:05;27.50;;;21.60;;
67074;SDS011;53990;50.334;18.640;2022-08-06T13:01:34;14.60;;;10.50;;
67074;SDS011;53990;50.334;18.640;2022-08-06T13:04:05;8.90;;;7.40;;
67074;SDS011;53990;50.334;18.640;2022-08-06T13:06:34;11.10;;;9.20;;
67074;SDS011;53990;50.334;18.640;2022-08-06T13:09:04;11.30;;;8.90;;
67074;SDS011;53990;50.334;18.640;2022-08-06T13:11:32;9.20;;;7.70;;
67074;SDS011;53990;50.334;18.640;2022-08-06T13:14:07;7.30;;;6.60;;
67074;SDS011;53990;50.334;18.640;2022-08-06T13:16:42;9.20;;;7.60;;
67074;SDS011;53990;50.334;18.640;2022-08-06T13:19:14;9.80;;;7.50;;
67074;SDS011;53990;50.334;18.640;2022-08-06T13:21:43;19.20;;;15.80;;
67074;SDS011;53990;50.334;18.640;2022-08-06T13:24:12;21.00;;;17.70;;
67074;SDS011;53990;50.334;18.640;2022-08-06T13:26:48;19.20;;;14.90;;
67074;SDS011;53990;50.334;18.640;2022-08-06T13:31:46;8.00;;;6.60;;
67074;SDS011;53990;50.334;18.640;2022-08-06T13:34:16;7.30;;;5.90;;
67074;SDS011;53990;50.334;18.640;2022-08-06T13:36:52;10.70;;;5.80;;
67074;SDS011;53990;50.334;18.640;2022-08-06T13:39:25;9.60;;;6.00;;
67074;SDS011;53990;50.334;18.640;2022-08-06T13:44:35;7.70;;;5.70;;
67074;SDS011;53990;50.334;18.640;2022-08-06T13:47:07;7.70;;;5.50;;
67074;SDS011;53990;50.334;18.640;2022-08-06T13:49:35;7.50;;;5.40;;
67074;SDS011;53990;50.334;18.640;2022-08-06T13:52:02;9.50;;;6.00;;
67074;SDS011;53990;50.334;18.640;2022-08-06T13:54:30;7.80;;;4.80;;
67074;SDS011;53990;50.334;18.640;2022-08-06T13:57:00;5.40;;;4.90;;
67074;SDS011;53990;50.334;18.640;2022-08-06T13:59:29;6.60;;;5.50;;
67074;SDS011;53990;50.334;18.640;2022-08-06T14:01:58;5.80;;;4.80;;
67074;SDS011;53990;50.334;18.640;2022-08-06T14:04:25;7.40;;;5.00;;
67074;SDS011;53990;50.334;18.640;2022-08-06T14:06:55;5.90;;;4.80;;
67074;SDS011;53990;50.334;18.640;2022-08-06T14:09:25;7.20;;;5.80;;
67074;SDS011;53990;50.334;18.640;2022-08-06T14:12:00;7.70;;;5.90;;
67074;SDS011;53990;50.334;18.640;2022-08-06T14:14:28;6.80;;;6.00;;
67074;SDS011;53990;50.334;18.640;2022-08-06T14:16:59;7.50;;;5.60;;
67074;SDS011;53990;50.334;18.640;2022-08-06T14:19:26;5.90;;;5.30;;
67074;SDS011;53990;50.334;18.640;2022-08-06T14:21:56;5.30;;;4.70;;
67074;SDS011;53990;50.334;18.640;2022-08-06T14:24:26;5.90;;;4.80;;
67074;SDS011;53990;50.334;18.640;2022-08-06T14:27:00;8.50;;;5.50;;
67074;SDS011;53990;50.334;18.640;2022-08-06T14:29:27;7.60;;;5.20;;
67074;SDS011;53990;50.334;18.640;2022-08-06T14:31:54;8.10;;;6.20;;
67074;SDS011;53990;50.334;18.640;2022-08-06T14:34:21;8.60;;;6.70;;
67074;SDS011;53990;50.334;18.640;2022-08-06T14:36:51;8.10;;;6.00;;
67074;SDS011;53990;50.334;18.640;2022-08-06T14:39:19;6.80;;;4.70;;
67074;SDS011;53990;50.334;18.640;2022-08-06T14:41:49;8.50;;;4.30;;
67074;SDS011;53990;50.334;18.640;2022-08-06T14:44:34;8.40;;;5.60;;
67074;SDS011;53990;50.334;18.640;2022-08-06T14:47:21;6.40;;;4.30;;
67074;SDS011;53990;50.334;18.640;2022-08-06T14:49:49;8.20;;;5.30;;
67074;SDS011;53990;50.334;18.640;2022-08-06T14:52:16;3.80;;;3.10;;
67074;SDS011;53990;50.334;18.640;2022-08-06T14:54:43;5.40;;;3.80;;
67074;SDS011;53990;50.334;18.640;2022-08-06T14:57:10;6.40;;;3.50;;
67074;SDS011;53990;50.334;18.640;2022-08-06T14:59:38;4.60;;;3.30;;
67074;SDS011;53990;50.334;18.640;2022-08-06T15:02:05;5.50;;;3.10;;
67074;SDS011;53990;50.334;18.640;2022-08-06T15:04:34;6.60;;;3.70;;
67074;SDS011;53990;50.334;18.640;2022-08-06T15:07:01;9.70;;;5.20;;
67074;SDS011;53990;50.334;18.640;2022-08-06T15:09:32;8.40;;;6.30;;
67074;SDS011;53990;50.334;18.640;2022-08-06T15:12:05;5.20;;;4.60;;
67074;SDS011;53990;50.334;18.640;2022-08-06T15:14:32;10.30;;;7.00;;
67074;SDS011;53990;50.334;18.640;2022-08-06T15:17:01;9.40;;;7.00;;
67074;SDS011;53990;50.334;18.640;2022-08-06T15:19:29;8.00;;;6.30;;
67074;SDS011;53990;50.334;18.640;2022-08-06T15:21:56;6.40;;;4.30;;
67074;SDS011;53990;50.334;18.640;2022-08-06T15:24:24;6.00;;;4.30;;
67074;SDS011;53990;50.334;18.640;2022-08-06T15:26:51;6.70;;;3.80;;
67074;SDS011;53990;50.334;18.640;2022-08-06T15:29:19;5.40;;;4.20;;
67074;SDS011;53990;50.334;18.640;2022-08-06T15:31:46;8.30;;;5.10;;
67074;SDS011;53990;50.334;18.640;2022-08-06T15:34:13;9.90;;;3.80;;
67074;SDS011;53990;50.334;18.640;2022-08-06T15:36:40;4.50;;;3.80;;
67074;SDS011;53990;50.334;18.640;2022-08-06T15:39:08;5.20;;;3.30;;
67074;SDS011;53990;50.334;18.640;2022-08-06T15:41:35;5.30;;;3.70;;
67074;SDS011;53990;50.334;18.640;2022-08-06T15:44:03;5.60;;;3.70;;
67074;SDS011;53990;50.334;18.640;2022-08-06T15:46:30;5.80;;;3.50;;
67074;SDS011;53990;50.334;18.640;2022-08-06T15:48:59;4.60;;;3.50;;
67074;SDS011;53990;50.334;18.640;2022-08-06T15:51:27;5.40;;;4.10;;
67074;SDS011;53990;50.334;18.640;2022-08-06T15:53:54;5.00;;;3.80;;
67074;SDS011;53990;50.334;18.640;2022-08-06T15:56:21;4.90;;;3.30;;
67074;SDS011;53990;50.334;18.640;2022-08-06T15:58:48;5.30;;;3.90;;
67074;SDS011;53990;50.334;18.640;2022-08-06T16:01:16;5.90;;;3.90;;